QTR71Y OTHH-EKCH
Flight info
| Callsign | QTR71Y |
|---|---|
| Flight time | 5h 34m |
| Altitude | 34000 |
| Route | DATRI L564 BAT/N0525F290 L564 MIGMA/N0518F280 M628 AMBAG/N0493F380 M321 KSA T503 LABIS/N0488F400 T503 OVANO L768 FIRAS R655 KTN R785 NIKAS L619 VESAR UB545 MUT UL619 MAKOL DCT IVDEK DCT OPT DCT KENIN DCT HATIP DCT NUBLI DCT VIDEV N133 POLON DCT RUMAR DCT ROE M743 TIDVU |
| Aircraft | A359/H-SDE2E3GHIJ3J4J5LM1ORWXY/LB1D1 |
Departure
| Time | 2026-05-04 14:35 |
|---|---|
| Airport | Hamad International Airport (OTHH) |
Arrival
| Time | 2026-05-04 20:09 |
|---|---|
| Airport | Copenhagen Kastrup Airport (EKCH) |
| Time | Latitude | Longitude | Altitude | Speed | Heading |
|---|---|---|---|---|---|
| 2026-05-04 14:20 | 25.26337 | 51.61164 | 29 ft | 0 kts | 68° |
| 2026-05-04 14:26 | 25.26333 | 51.61155 | 27 ft | 3 kts | 68° |
| 2026-05-04 14:26 | 25.26326 | 51.61134 | 28 ft | 3 kts | 68° |
| 2026-05-04 14:27 | 25.26319 | 51.61114 | 25 ft | 2 kts | 68° |
| 2026-05-04 14:27 | 25.26313 | 51.61097 | 26 ft | 3 kts | 79° |
| 2026-05-04 14:27 | 25.26312 | 51.61077 | 26 ft | 3 kts | 111° |
| 2026-05-04 14:27 | 25.26322 | 51.61060 | 26 ft | 3 kts | 150° |
| 2026-05-04 14:28 | 25.26340 | 51.61052 | 25 ft | 3 kts | 163° |
| 2026-05-04 14:28 | 25.26355 | 51.61047 | 26 ft | 1 kts | 158° |
| 2026-05-04 14:28 | 25.26359 | 51.61045 | 26 ft | 0 kts | 158° |
| 2026-05-04 14:30 | 25.26320 | 51.61062 | 25 ft | 10 kts | 158° |
| 2026-05-04 14:31 | 25.26246 | 51.61078 | 28 ft | 10 kts | 204° |
| 2026-05-04 14:31 | 25.26174 | 51.60923 | 28 ft | 14 kts | 248° |
| 2026-05-04 14:32 | 25.26088 | 51.60686 | 28 ft | 19 kts | 249° |
| 2026-05-04 14:32 | 25.26034 | 51.60559 | 27 ft | 15 kts | 215° |
| 2026-05-04 14:32 | 25.25933 | 51.60582 | 27 ft | 17 kts | 159° |
| 2026-05-04 14:32 | 25.25811 | 51.60635 | 27 ft | 21 kts | 158° |
| 2026-05-04 14:33 | 25.25698 | 51.60685 | 27 ft | 0 kts | 158° |
| 2026-05-04 14:33 | 25.25693 | 51.60688 | 27 ft | 3 kts | 158° |
| 2026-05-04 14:33 | 25.25646 | 51.60707 | 27 ft | 9 kts | 166° |
| 2026-05-04 14:33 | 25.25587 | 51.60665 | 30 ft | 14 kts | 236° |
| 2026-05-04 14:34 | 25.25580 | 51.60564 | 25 ft | 13 kts | 282° |
| 2026-05-04 14:34 | 25.25635 | 51.60510 | 26 ft | 10 kts | 337° |
| 2026-05-04 14:34 | 25.25856 | 51.60411 | 30 ft | 66 kts | 338° |
| 2026-05-04 14:34 | 25.26469 | 51.60140 | 25 ft | 123 kts | 338° |
| 2026-05-04 14:35 | 25.27431 | 51.59714 | 43 ft | 171 kts | 339° |
| 2026-05-04 14:35 | 25.28556 | 51.59218 | 616 ft | 173 kts | 340° |
| 2026-05-04 14:35 | 25.29649 | 51.58716 | 1343 ft | 167 kts | 338° |
| 2026-05-04 14:35 | 25.30759 | 51.58223 | 1741 ft | 178 kts | 339° |
| 2026-05-04 14:36 | 25.31957 | 51.57699 | 1940 ft | 193 kts | 340° |
| 2026-05-04 14:36 | 25.33266 | 51.57126 | 2110 ft | 211 kts | 340° |
| 2026-05-04 14:36 | 25.34681 | 51.56505 | 2327 ft | 226 kts | 340° |
| 2026-05-04 14:36 | 25.36192 | 51.55839 | 2565 ft | 241 kts | 340° |
| 2026-05-04 14:37 | 25.38777 | 51.54692 | 3253 ft | 251 kts | 340° |
| 2026-05-04 14:37 | 25.44029 | 51.52371 | 3990 ft | 256 kts | 339° |
| 2026-05-04 14:37 | 25.46690 | 51.51036 | 4399 ft | 261 kts | 328° |
| 2026-05-04 14:37 | 25.48403 | 51.45447 | 6036 ft | 275 kts | 271° |
| 2026-05-04 14:38 | 25.48020 | 51.38464 | 7684 ft | 278 kts | 270° |
| 2026-05-04 14:38 | 25.47743 | 51.32487 | 9052 ft | 283 kts | 270° |
| 2026-05-04 14:38 | 25.45745 | 51.26102 | 10526 ft | 303 kts | 218° |
| 2026-05-04 14:38 | 25.41418 | 51.25131 | 10894 ft | 336 kts | 181° |
| 2026-05-04 14:39 | 25.31473 | 51.25420 | 11590 ft | 378 kts | 181° |
| 2026-05-04 14:39 | 25.20893 | 51.28039 | 12720 ft | 398 kts | 160° |
| 2026-05-04 14:39 | 25.10488 | 51.32465 | 14084 ft | 404 kts | 161° |
| 2026-05-04 14:40 | 24.99646 | 51.37038 | 15403 ft | 409 kts | 161° |
| 2026-05-04 14:40 | 24.96986 | 51.38153 | 15722 ft | 410 kts | 161° |
| 2026-05-04 14:40 | 24.94315 | 51.39282 | 16050 ft | 412 kts | 160° |
| 2026-05-04 14:40 | 24.91771 | 51.40731 | 16370 ft | 415 kts | 149° |
| 2026-05-04 14:41 | 24.89380 | 51.42538 | 16702 ft | 417 kts | 146° |
| 2026-05-04 14:41 | 24.87016 | 51.44401 | 17058 ft | 417 kts | 146° |
| 2026-05-04 14:41 | 24.82285 | 51.48122 | 17720 ft | 420 kts | 146° |
| 2026-05-04 14:42 | 24.77504 | 51.51861 | 18296 ft | 423 kts | 146° |
| 2026-05-04 14:42 | 24.75070 | 51.53708 | 18532 ft | 425 kts | 150° |
| 2026-05-04 14:42 | 24.72430 | 51.55144 | 18755 ft | 423 kts | 162° |
| 2026-05-04 14:43 | 24.69572 | 51.55859 | 18999 ft | 421 kts | 176° |
| 2026-05-04 14:43 | 24.66650 | 51.55811 | 19246 ft | 420 kts | 188° |
| 2026-05-04 14:43 | 24.63758 | 51.55329 | 19497 ft | 420 kts | 192° |
| 2026-05-04 14:43 | 24.60913 | 51.54685 | 19735 ft | 422 kts | 194° |
| 2026-05-04 14:44 | 24.58052 | 51.53960 | 19982 ft | 423 kts | 195° |
| 2026-05-04 14:44 | 24.55170 | 51.53213 | 20231 ft | 425 kts | 195° |
| 2026-05-04 14:44 | 24.52285 | 51.52477 | 20472 ft | 426 kts | 195° |
| 2026-05-04 14:44 | 24.49385 | 51.51757 | 20709 ft | 428 kts | 194° |
| 2026-05-04 14:45 | 24.46492 | 51.51056 | 20946 ft | 430 kts | 194° |
| 2026-05-04 14:45 | 24.43533 | 51.50352 | 21187 ft | 431 kts | 194° |
| 2026-05-04 14:45 | 24.40597 | 51.49660 | 21398 ft | 433 kts | 194° |
| 2026-05-04 14:45 | 24.37650 | 51.48968 | 21605 ft | 435 kts | 194° |
| 2026-05-04 14:46 | 24.34704 | 51.48277 | 21842 ft | 437 kts | 194° |
| 2026-05-04 14:46 | 24.31700 | 51.47573 | 22070 ft | 438 kts | 194° |
| 2026-05-04 14:46 | 24.28736 | 51.46877 | 22285 ft | 440 kts | 194° |
| 2026-05-04 14:46 | 24.25711 | 51.46167 | 22503 ft | 441 kts | 194° |
| 2026-05-04 14:47 | 24.22707 | 51.45544 | 22714 ft | 444 kts | 190° |
| 2026-05-04 14:47 | 24.19631 | 51.45274 | 22920 ft | 447 kts | 185° |
| 2026-05-04 14:47 | 24.16488 | 51.45173 | 23137 ft | 450 kts | 183° |
| 2026-05-04 14:47 | 24.13364 | 51.45150 | 23330 ft | 451 kts | 182° |
| 2026-05-04 14:48 | 24.10194 | 51.45167 | 23501 ft | 453 kts | 182° |
| 2026-05-04 14:48 | 24.07030 | 51.45198 | 23683 ft | 454 kts | 182° |
| 2026-05-04 14:48 | 24.03898 | 51.45229 | 23862 ft | 455 kts | 182° |
| 2026-05-04 14:48 | 24.00724 | 51.45255 | 24034 ft | 456 kts | 182° |
| 2026-05-04 14:49 | 23.97553 | 51.45274 | 24210 ft | 457 kts | 182° |
| 2026-05-04 14:49 | 23.94375 | 51.45289 | 24384 ft | 458 kts | 182° |
| 2026-05-04 14:49 | 23.91157 | 51.45301 | 24573 ft | 459 kts | 182° |
| 2026-05-04 14:49 | 23.87975 | 51.45311 | 24737 ft | 460 kts | 182° |
| 2026-05-04 14:50 | 23.84757 | 51.45320 | 24918 ft | 460 kts | 182° |
| 2026-05-04 14:50 | 23.81543 | 51.45331 | 25070 ft | 461 kts | 182° |
| 2026-05-04 14:50 | 23.78339 | 51.45341 | 25241 ft | 463 kts | 182° |
| 2026-05-04 14:50 | 23.75144 | 51.45351 | 25402 ft | 464 kts | 182° |
| 2026-05-04 14:51 | 23.71925 | 51.45362 | 25564 ft | 465 kts | 182° |
| 2026-05-04 14:51 | 23.68686 | 51.45373 | 25739 ft | 466 kts | 182° |
| 2026-05-04 14:51 | 23.65434 | 51.45384 | 25905 ft | 466 kts | 182° |
| 2026-05-04 14:51 | 23.62178 | 51.45394 | 26058 ft | 467 kts | 182° |
| 2026-05-04 14:52 | 23.58930 | 51.45405 | 26237 ft | 468 kts | 182° |
| 2026-05-04 14:52 | 23.55640 | 51.45416 | 26402 ft | 469 kts | 182° |
| 2026-05-04 14:52 | 23.52379 | 51.45428 | 26562 ft | 471 kts | 182° |
| 2026-05-04 14:52 | 23.49104 | 51.45439 | 26729 ft | 472 kts | 183° |
| 2026-05-04 14:53 | 23.45818 | 51.45456 | 26890 ft | 473 kts | 182° |
| 2026-05-04 14:53 | 23.42532 | 51.45497 | 27049 ft | 474 kts | 182° |
| 2026-05-04 14:53 | 23.39240 | 51.45552 | 27215 ft | 475 kts | 182° |
| 2026-05-04 14:53 | 23.35920 | 51.45611 | 27357 ft | 477 kts | 182° |
| 2026-05-04 14:54 | 23.32599 | 51.45670 | 27534 ft | 478 kts | 182° |
| 2026-05-04 14:54 | 23.29306 | 51.45727 | 27702 ft | 478 kts | 182° |
| 2026-05-04 14:54 | 23.25976 | 51.45781 | 27873 ft | 479 kts | 182° |
| 2026-05-04 14:54 | 23.22640 | 51.45835 | 28036 ft | 480 kts | 182° |
| 2026-05-04 14:55 | 23.19263 | 51.45890 | 28197 ft | 481 kts | 182° |
| 2026-05-04 14:55 | 23.15926 | 51.45937 | 28354 ft | 482 kts | 182° |
| 2026-05-04 14:55 | 23.12546 | 51.45981 | 28499 ft | 484 kts | 182° |
| 2026-05-04 14:55 | 23.09221 | 51.46023 | 28649 ft | 485 kts | 182° |
| 2026-05-04 14:56 | 23.05846 | 51.46009 | 28797 ft | 484 kts | 186° |
| 2026-05-04 14:56 | 23.02509 | 51.45591 | 28952 ft | 482 kts | 194° |
| 2026-05-04 14:56 | 22.99281 | 51.44653 | 29083 ft | 479 kts | 202° |
| 2026-05-04 14:56 | 22.96252 | 51.43178 | 29233 ft | 476 kts | 211° |
| 2026-05-04 14:57 | 22.93506 | 51.41199 | 29373 ft | 474 kts | 220° |
| 2026-05-04 14:57 | 22.91841 | 51.39598 | 29459 ft | 473 kts | 227° |
| 2026-05-04 14:57 | 22.89707 | 51.36891 | 29622 ft | 471 kts | 236° |
| 2026-05-04 14:57 | 22.88034 | 51.33897 | 29760 ft | 471 kts | 244° |
| 2026-05-04 14:58 | 22.86805 | 51.30603 | 29874 ft | 471 kts | 253° |
| 2026-05-04 14:58 | 22.86082 | 51.27135 | 29988 ft | 472 kts | 262° |
| 2026-05-04 14:58 | 22.85880 | 51.23575 | 30108 ft | 474 kts | 270° |
| 2026-05-04 14:58 | 22.86020 | 51.20006 | 30224 ft | 475 kts | 272° |
| 2026-05-04 14:59 | 22.86254 | 51.16423 | 30364 ft | 476 kts | 274° |
| 2026-05-04 14:59 | 22.86525 | 51.12837 | 30494 ft | 477 kts | 274° |
| 2026-05-04 14:59 | 22.87077 | 51.05659 | 30754 ft | 478 kts | 274° |
| 2026-05-04 15:00 | 22.87337 | 51.02054 | 30886 ft | 479 kts | 273° |
| 2026-05-04 15:00 | 22.87585 | 50.98449 | 31022 ft | 480 kts | 273° |
| 2026-05-04 15:00 | 22.87825 | 50.94877 | 31156 ft | 480 kts | 273° |
| 2026-05-04 15:01 | 22.88301 | 50.87656 | 31532 ft | 479 kts | 273° |
| 2026-05-04 15:01 | 22.88537 | 50.84050 | 31695 ft | 479 kts | 273° |
| 2026-05-04 15:01 | 22.88773 | 50.80445 | 31876 ft | 479 kts | 273° |
| 2026-05-04 15:01 | 22.89009 | 50.76835 | 32067 ft | 478 kts | 273° |
| 2026-05-04 15:02 | 22.89244 | 50.73226 | 32268 ft | 477 kts | 273° |
| 2026-05-04 15:02 | 22.89475 | 50.69680 | 32458 ft | 477 kts | 273° |
| 2026-05-04 15:02 | 22.89707 | 50.66096 | 32655 ft | 476 kts | 273° |
| 2026-05-04 15:02 | 22.89940 | 50.62486 | 32842 ft | 476 kts | 273° |
| 2026-05-04 15:03 | 22.90171 | 50.58906 | 33029 ft | 476 kts | 273° |
| 2026-05-04 15:03 | 22.90399 | 50.55345 | 33323 ft | 473 kts | 273° |
| 2026-05-04 15:03 | 22.90626 | 50.51789 | 33553 ft | 472 kts | 273° |
| 2026-05-04 15:03 | 22.90852 | 50.48233 | 33743 ft | 472 kts | 273° |
| 2026-05-04 15:04 | 22.91078 | 50.44681 | 33931 ft | 472 kts | 273° |
| 2026-05-04 15:04 | 22.91302 | 50.41134 | 34134 ft | 471 kts | 273° |
| 2026-05-04 15:04 | 22.91525 | 50.37589 | 34342 ft | 470 kts | 273° |
| 2026-05-04 15:04 | 22.91747 | 50.34047 | 34551 ft | 469 kts | 272° |
| 2026-05-04 15:05 | 22.91965 | 50.30567 | 34748 ft | 469 kts | 272° |
| 2026-05-04 15:05 | 22.92185 | 50.27038 | 34946 ft | 468 kts | 272° |
| 2026-05-04 15:05 | 22.92403 | 50.23520 | 35156 ft | 467 kts | 272° |
| 2026-05-04 15:05 | 22.92620 | 50.20008 | 35363 ft | 466 kts | 272° |
| 2026-05-04 15:06 | 22.92837 | 50.16498 | 35547 ft | 466 kts | 272° |
| 2026-05-04 15:06 | 22.93052 | 50.12989 | 35717 ft | 467 kts | 272° |
| 2026-05-04 15:07 | 22.93695 | 50.02433 | 35758 ft | 468 kts | 272° |
| 2026-05-04 15:07 | 22.94121 | 49.95387 | 35757 ft | 468 kts | 272° |
| 2026-05-04 15:08 | 22.94546 | 49.88310 | 35758 ft | 468 kts | 272° |
| 2026-05-04 15:08 | 22.94965 | 49.81270 | 35753 ft | 467 kts | 272° |
| 2026-05-04 15:09 | 22.95378 | 49.74283 | 35754 ft | 467 kts | 272° |
| 2026-05-04 15:09 | 22.95790 | 49.67252 | 35748 ft | 467 kts | 272° |
| 2026-05-04 15:10 | 22.96403 | 49.56708 | 35749 ft | 467 kts | 272° |
| 2026-05-04 15:11 | 22.97009 | 49.46157 | 35752 ft | 467 kts | 272° |
| 2026-05-04 15:11 | 22.97409 | 49.39128 | 35751 ft | 467 kts | 272° |
| 2026-05-04 15:12 | 22.97807 | 49.32059 | 35748 ft | 467 kts | 272° |
| 2026-05-04 15:12 | 22.98200 | 49.25044 | 35751 ft | 467 kts | 271° |
| 2026-05-04 15:13 | 22.98589 | 49.18037 | 35750 ft | 466 kts | 271° |
| 2026-05-04 15:13 | 22.98979 | 49.10970 | 35751 ft | 466 kts | 271° |
| 2026-05-04 15:14 | 22.99362 | 49.03954 | 35750 ft | 466 kts | 271° |
| 2026-05-04 15:14 | 22.99758 | 48.96940 | 35753 ft | 466 kts | 272° |
| 2026-05-04 15:15 | 23.00321 | 48.89974 | 35756 ft | 467 kts | 274° |
| 2026-05-04 15:15 | 23.00934 | 48.82955 | 35754 ft | 467 kts | 273° |
| 2026-05-04 15:16 | 23.01803 | 48.72442 | 35760 ft | 467 kts | 273° |
| 2026-05-04 15:17 | 23.02640 | 48.61911 | 35763 ft | 467 kts | 273° |
| 2026-05-04 15:17 | 23.03471 | 48.51371 | 35762 ft | 465 kts | 273° |
| 2026-05-04 15:18 | 23.04017 | 48.44402 | 35767 ft | 465 kts | 273° |
| 2026-05-04 15:19 | 23.04835 | 48.33880 | 35766 ft | 466 kts | 273° |
| 2026-05-04 15:19 | 23.05645 | 48.23388 | 35766 ft | 466 kts | 273° |
| 2026-05-04 15:20 | 23.06183 | 48.16364 | 35766 ft | 466 kts | 273° |
| 2026-05-04 15:20 | 23.06716 | 48.09371 | 35767 ft | 466 kts | 273° |
| 2026-05-04 15:21 | 23.07247 | 48.02354 | 35767 ft | 465 kts | 273° |
| 2026-05-04 15:22 | 23.08034 | 47.91878 | 35776 ft | 465 kts | 272° |
| 2026-05-04 15:22 | 23.09825 | 47.81552 | 35784 ft | 470 kts | 289° |
| 2026-05-04 15:23 | 23.13211 | 47.75419 | 35783 ft | 479 kts | 307° |
| 2026-05-04 15:23 | 23.18322 | 47.70685 | 35793 ft | 489 kts | 322° |
| 2026-05-04 15:24 | 23.29900 | 47.62891 | 35801 ft | 490 kts | 324° |
| 2026-05-04 15:25 | 23.35712 | 47.59009 | 35802 ft | 490 kts | 323° |
| 2026-05-04 15:26 | 23.44437 | 47.53102 | 35811 ft | 490 kts | 323° |
| 2026-05-04 15:26 | 23.53075 | 47.47236 | 35814 ft | 490 kts | 323° |
| 2026-05-04 15:27 | 23.61790 | 47.41308 | 35825 ft | 490 kts | 323° |
| 2026-05-04 15:28 | 23.70438 | 47.35419 | 35821 ft | 489 kts | 323° |
| 2026-05-04 15:29 | 23.79078 | 47.29526 | 35830 ft | 489 kts | 323° |
| 2026-05-04 15:30 | 23.99288 | 47.15706 | 35837 ft | 490 kts | 322° |
| 2026-05-04 15:31 | 24.07954 | 47.09765 | 35845 ft | 491 kts | 322° |
| 2026-05-04 15:32 | 24.23567 | 47.01710 | 35845 ft | 499 kts | 332° |
| 2026-05-04 15:34 | 24.39541 | 46.94317 | 35862 ft | 498 kts | 331° |
| 2026-05-04 15:34 | 24.49099 | 46.89856 | 35859 ft | 498 kts | 331° |
| 2026-05-04 15:35 | 24.58676 | 46.85378 | 35879 ft | 498 kts | 330° |
| 2026-05-04 15:36 | 24.68212 | 46.80913 | 35875 ft | 498 kts | 330° |
| 2026-05-04 15:36 | 24.74567 | 46.77932 | 35881 ft | 498 kts | 330° |
| 2026-05-04 15:37 | 24.80953 | 46.74936 | 35881 ft | 498 kts | 330° |
| 2026-05-04 15:37 | 24.87310 | 46.71948 | 35887 ft | 498 kts | 330° |
| 2026-05-04 15:38 | 24.93724 | 46.68929 | 35882 ft | 498 kts | 330° |
| 2026-05-04 15:38 | 24.99585 | 46.65127 | 35886 ft | 482 kts | 314° |
| 2026-05-04 15:39 | 25.04590 | 46.60323 | 35884 ft | 478 kts | 311° |
| 2026-05-04 15:40 | 25.11877 | 46.52825 | 35883 ft | 477 kts | 310° |
| 2026-05-04 15:40 | 25.16763 | 46.47787 | 35884 ft | 477 kts | 310° |
| 2026-05-04 15:41 | 25.21613 | 46.42811 | 35884 ft | 477 kts | 310° |
| 2026-05-04 15:41 | 25.26458 | 46.37846 | 35883 ft | 477 kts | 310° |
| 2026-05-04 15:42 | 25.30518 | 46.33681 | 35896 ft | 477 kts | 310° |
| 2026-05-04 15:42 | 25.36175 | 46.27872 | 35881 ft | 477 kts | 310° |
| 2026-05-04 15:43 | 25.40233 | 46.23699 | 35876 ft | 477 kts | 310° |
| 2026-05-04 15:43 | 25.45071 | 46.18717 | 35873 ft | 477 kts | 310° |
| 2026-05-04 15:44 | 25.49933 | 46.13708 | 35870 ft | 476 kts | 309° |
| 2026-05-04 15:44 | 25.54759 | 46.08728 | 35868 ft | 475 kts | 309° |
| 2026-05-04 15:45 | 25.59611 | 46.03714 | 35874 ft | 475 kts | 309° |
| 2026-05-04 15:45 | 25.64419 | 45.98746 | 35878 ft | 475 kts | 309° |
| 2026-05-04 15:46 | 25.69243 | 45.93753 | 35871 ft | 474 kts | 309° |
| 2026-05-04 15:46 | 25.74042 | 45.88772 | 35870 ft | 473 kts | 309° |
| 2026-05-04 15:47 | 25.78852 | 45.83775 | 35872 ft | 473 kts | 309° |
| 2026-05-04 15:47 | 25.83662 | 45.78777 | 35870 ft | 473 kts | 309° |
| 2026-05-04 15:48 | 25.88446 | 45.73802 | 35873 ft | 473 kts | 309° |
| 2026-05-04 15:48 | 25.95661 | 45.66282 | 35871 ft | 473 kts | 309° |
| 2026-05-04 15:49 | 26.00435 | 45.61298 | 35875 ft | 472 kts | 309° |
| 2026-05-04 15:49 | 26.05208 | 45.56309 | 35878 ft | 472 kts | 308° |
| 2026-05-04 15:50 | 26.10008 | 45.51286 | 35888 ft | 472 kts | 308° |
| 2026-05-04 15:50 | 26.14768 | 45.46302 | 35874 ft | 470 kts | 308° |
| 2026-05-04 15:51 | 26.19542 | 45.41298 | 35869 ft | 470 kts | 308° |
| 2026-05-04 15:51 | 26.24272 | 45.36333 | 35878 ft | 470 kts | 308° |
| 2026-05-04 15:52 | 26.29013 | 45.31352 | 35877 ft | 469 kts | 308° |
| 2026-05-04 15:52 | 26.33773 | 45.26357 | 35870 ft | 469 kts | 308° |
| 2026-05-04 15:53 | 26.38515 | 45.21384 | 35865 ft | 469 kts | 308° |
| 2026-05-04 15:53 | 26.43285 | 45.16375 | 35871 ft | 469 kts | 308° |
| 2026-05-04 15:54 | 26.48011 | 45.11404 | 35865 ft | 470 kts | 308° |
| 2026-05-04 15:54 | 26.52774 | 45.06392 | 35864 ft | 470 kts | 308° |
| 2026-05-04 15:55 | 26.57541 | 45.01369 | 35877 ft | 470 kts | 308° |
| 2026-05-04 15:55 | 26.62284 | 44.96377 | 35856 ft | 468 kts | 308° |
| 2026-05-04 15:56 | 26.67027 | 44.91368 | 35856 ft | 468 kts | 308° |
| 2026-05-04 15:56 | 26.71746 | 44.86375 | 35856 ft | 468 kts | 308° |
| 2026-05-04 15:57 | 26.76471 | 44.81372 | 35854 ft | 468 kts | 308° |
| 2026-05-04 15:57 | 26.81205 | 44.76359 | 35854 ft | 468 kts | 307° |
| 2026-05-04 15:58 | 26.85925 | 44.71337 | 35851 ft | 468 kts | 307° |
| 2026-05-04 15:58 | 26.90612 | 44.66344 | 35860 ft | 468 kts | 307° |
| 2026-05-04 15:59 | 26.95322 | 44.61326 | 35868 ft | 467 kts | 307° |
| 2026-05-04 15:59 | 27.00034 | 44.56300 | 35847 ft | 467 kts | 307° |
| 2026-05-04 16:00 | 27.04743 | 44.51271 | 35849 ft | 467 kts | 307° |
| 2026-05-04 16:00 | 27.09442 | 44.46233 | 35852 ft | 467 kts | 307° |
| 2026-05-04 16:01 | 27.14140 | 44.41192 | 35864 ft | 467 kts | 307° |
| 2026-05-04 16:01 | 27.18854 | 44.36138 | 35856 ft | 468 kts | 307° |
| 2026-05-04 16:02 | 27.23567 | 44.31084 | 35856 ft | 469 kts | 307° |
| 2026-05-04 16:03 | 27.30609 | 44.23517 | 35856 ft | 468 kts | 306° |
| 2026-05-04 16:03 | 27.35315 | 44.18454 | 35862 ft | 468 kts | 306° |
| 2026-05-04 16:04 | 27.40023 | 44.13382 | 35867 ft | 468 kts | 306° |
| 2026-05-04 16:04 | 27.47080 | 44.05767 | 35869 ft | 468 kts | 306° |
| 2026-05-04 16:05 | 27.51777 | 44.00691 | 35874 ft | 468 kts | 306° |
| 2026-05-04 16:06 | 27.58770 | 43.93127 | 35874 ft | 466 kts | 306° |
| 2026-05-04 16:07 | 27.68113 | 43.82990 | 35904 ft | 466 kts | 306° |
| 2026-05-04 16:08 | 27.77431 | 43.72860 | 35881 ft | 464 kts | 306° |
| 2026-05-04 16:09 | 27.88876 | 43.60118 | 35893 ft | 459 kts | 303° |
| 2026-05-04 16:10 | 27.97527 | 43.49487 | 35900 ft | 458 kts | 303° |
| 2026-05-04 16:11 | 28.06213 | 43.38966 | 35899 ft | 457 kts | 303° |
| 2026-05-04 16:12 | 28.19215 | 43.23215 | 35895 ft | 456 kts | 303° |
| 2026-05-04 16:13 | 28.27857 | 43.12707 | 35893 ft | 454 kts | 303° |
| 2026-05-04 16:14 | 28.36448 | 43.02234 | 35898 ft | 454 kts | 303° |
| 2026-05-04 16:16 | 28.47228 | 42.89053 | 35892 ft | 456 kts | 303° |
| 2026-05-04 16:17 | 28.58023 | 42.75813 | 35880 ft | 456 kts | 303° |
| 2026-05-04 16:18 | 28.66650 | 42.65209 | 35880 ft | 456 kts | 303° |
| 2026-05-04 16:19 | 28.77406 | 42.51930 | 35869 ft | 457 kts | 303° |
| 2026-05-04 16:20 | 28.88170 | 42.38602 | 35877 ft | 457 kts | 303° |
| 2026-05-04 16:22 | 28.98876 | 42.25304 | 35859 ft | 456 kts | 303° |
| 2026-05-04 16:23 | 29.11757 | 42.09249 | 35855 ft | 457 kts | 303° |
| 2026-05-04 16:25 | 29.24597 | 41.93170 | 35859 ft | 457 kts | 302° |
| 2026-05-04 16:26 | 29.39593 | 41.74316 | 35870 ft | 457 kts | 302° |
| 2026-05-04 16:28 | 29.50260 | 41.60850 | 35868 ft | 457 kts | 302° |
| 2026-05-04 16:29 | 29.65190 | 41.41927 | 35883 ft | 456 kts | 302° |
| 2026-05-04 16:31 | 29.75304 | 41.29464 | 35896 ft | 463 kts | 307° |
| 2026-05-04 16:32 | 29.89775 | 41.14557 | 35908 ft | 465 kts | 308° |
| 2026-05-04 16:33 | 29.99443 | 41.04606 | 35915 ft | 466 kts | 308° |
| 2026-05-04 16:34 | 30.06668 | 40.97146 | 35953 ft | 466 kts | 308° |
| 2026-05-04 16:35 | 30.21092 | 40.82211 | 35927 ft | 462 kts | 308° |
| 2026-05-04 16:36 | 30.28285 | 40.74737 | 35934 ft | 462 kts | 308° |
| 2026-05-04 16:37 | 30.35444 | 40.67284 | 35939 ft | 462 kts | 308° |
| 2026-05-04 16:38 | 30.45067 | 40.57348 | 35944 ft | 463 kts | 308° |
| 2026-05-04 16:39 | 30.57110 | 40.45025 | 35961 ft | 462 kts | 308° |
| 2026-05-04 16:40 | 30.66748 | 40.35109 | 35960 ft | 462 kts | 308° |
| 2026-05-04 16:41 | 30.78745 | 40.22726 | 35972 ft | 461 kts | 308° |
| 2026-05-04 16:43 | 30.90666 | 40.10381 | 35968 ft | 459 kts | 308° |
| 2026-05-04 16:43 | 30.97815 | 40.02954 | 35987 ft | 459 kts | 308° |
| 2026-05-04 16:45 | 31.12108 | 39.88062 | 36008 ft | 459 kts | 308° |
| 2026-05-04 16:46 | 31.23984 | 39.75641 | 35980 ft | 460 kts | 308° |
| 2026-05-04 16:47 | 31.33507 | 39.65651 | 35980 ft | 460 kts | 308° |
| 2026-05-04 16:48 | 31.43055 | 39.55605 | 35977 ft | 460 kts | 308° |
| 2026-05-04 16:49 | 31.52557 | 39.45578 | 35982 ft | 461 kts | 308° |
| 2026-05-04 16:50 | 31.62075 | 39.35504 | 35986 ft | 461 kts | 308° |
| 2026-05-04 16:51 | 31.69231 | 39.27913 | 35982 ft | 461 kts | 308° |
| 2026-05-04 16:52 | 31.78770 | 39.17886 | 35981 ft | 467 kts | 312° |
| 2026-05-04 16:52 | 31.81491 | 39.15708 | 36007 ft | 478 kts | 319° |
| 2026-05-04 16:53 | 31.87381 | 39.11991 | 36017 ft | 483 kts | 322° |
| 2026-05-04 16:54 | 31.99464 | 39.04936 | 35976 ft | 482 kts | 323° |
| 2026-05-04 16:55 | 32.17449 | 38.94340 | 35967 ft | 482 kts | 322° |
| 2026-05-04 16:56 | 32.32419 | 38.85479 | 35968 ft | 482 kts | 322° |
| 2026-05-04 16:57 | 32.41428 | 38.80131 | 35965 ft | 482 kts | 322° |
| 2026-05-04 16:58 | 32.53420 | 38.72992 | 35970 ft | 482 kts | 322° |
| 2026-05-04 17:00 | 32.71349 | 38.62288 | 35960 ft | 480 kts | 322° |
| 2026-05-04 17:01 | 32.86261 | 38.53345 | 35960 ft | 479 kts | 322° |
| 2026-05-04 17:02 | 32.98169 | 38.46182 | 35960 ft | 480 kts | 322° |
| 2026-05-04 17:03 | 33.07097 | 38.40797 | 35963 ft | 480 kts | 322° |
| 2026-05-04 17:03 | 33.16050 | 38.35382 | 35964 ft | 480 kts | 322° |
| 2026-05-04 17:04 | 33.27932 | 38.28180 | 35963 ft | 480 kts | 322° |
| 2026-05-04 17:05 | 33.39816 | 38.20905 | 35955 ft | 480 kts | 322° |
| 2026-05-04 17:06 | 33.48765 | 38.15434 | 35955 ft | 482 kts | 322° |
| 2026-05-04 17:07 | 33.56757 | 38.10583 | 35947 ft | 482 kts | 322° |
| 2026-05-04 17:07 | 33.63726 | 38.06348 | 35948 ft | 482 kts | 322° |
| 2026-05-04 17:08 | 33.72677 | 38.00890 | 35964 ft | 483 kts | 322° |
| 2026-05-04 17:09 | 33.78711 | 37.97201 | 35930 ft | 484 kts | 322° |
| 2026-05-04 17:09 | 33.84529 | 37.93283 | 35940 ft | 470 kts | 313° |
| 2026-05-04 17:10 | 33.89133 | 37.88035 | 35927 ft | 445 kts | 297° |
| 2026-05-04 17:10 | 33.94184 | 37.78875 | 35925 ft | 437 kts | 292° |
| 2026-05-04 17:11 | 33.97376 | 37.72660 | 35926 ft | 437 kts | 292° |
| 2026-05-04 17:12 | 34.02212 | 37.63305 | 35923 ft | 438 kts | 292° |
| 2026-05-04 17:13 | 34.10316 | 37.47724 | 35926 ft | 438 kts | 293° |
| 2026-05-04 17:14 | 34.16816 | 37.35169 | 35910 ft | 442 kts | 293° |
| 2026-05-04 17:15 | 34.21931 | 37.25872 | 35913 ft | 452 kts | 301° |
| 2026-05-04 17:16 | 34.30570 | 37.14671 | 35912 ft | 457 kts | 304° |
| 2026-05-04 17:16 | 34.36190 | 37.07602 | 35627 ft | 456 kts | 311° |
| 2026-05-04 17:17 | 34.38395 | 37.04809 | 35930 ft | 461 kts | 304° |
| 2026-05-04 17:18 | 34.61133 | 36.75803 | 35914 ft | 456 kts | 304° |
| 2026-05-04 17:19 | 34.96084 | 36.30710 | 35910 ft | 464 kts | 306° |
| 2026-05-04 17:20 | 35.20611 | 35.80174 | 35903 ft | 433 kts | 261° |
| 2026-05-04 17:20 | 35.27835 | 35.51937 | 35898 ft | 451 kts | 293° |
| 2026-05-04 17:20 | 35.33771 | 35.38382 | 35887 ft | 451 kts | 293° |
| 2026-05-04 17:21 | 35.57155 | 34.83709 | 35870 ft | 455 kts | 293° |
| 2026-05-04 17:22 | 35.68788 | 34.56181 | 35859 ft | 456 kts | 294° |
| 2026-05-04 17:23 | 35.93071 | 34.01265 | 35845 ft | 466 kts | 312° |
| 2026-05-04 17:23 | 36.15252 | 33.83701 | 35837 ft | 475 kts | 324° |
| 2026-05-04 17:25 | 36.71842 | 33.40385 | 35885 ft | 478 kts | 325° |
| 2026-05-04 17:25 | 36.94710 | 33.17935 | 35894 ft | 473 kts | 310° |
| 2026-05-04 17:26 | 37.12417 | 32.93591 | 35917 ft | 472 kts | 311° |
| 2026-05-04 17:27 | 37.56450 | 32.32665 | 35914 ft | 472 kts | 312° |
| 2026-05-04 17:28 | 37.91517 | 31.83307 | 35949 ft | 470 kts | 312° |
| 2026-05-04 17:29 | 38.27482 | 31.31874 | 35982 ft | 467 kts | 313° |
| 2026-05-04 17:30 | 38.54466 | 30.98820 | 36014 ft | 464 kts | 337° |
| 2026-05-04 17:31 | 38.78638 | 30.87238 | 36015 ft | 465 kts | 339° |
| 2026-05-04 17:33 | 39.72473 | 30.39766 | 37993 ft | 472 kts | 336° |
| 2026-05-04 17:33 | 39.86560 | 30.31496 | 38012 ft | 472 kts | 336° |
| 2026-05-04 17:34 | 40.31914 | 30.04718 | 38060 ft | 473 kts | 337° |
| 2026-05-04 17:35 | 40.84587 | 29.73111 | 38042 ft | 467 kts | 337° |
| 2026-05-04 17:36 | 41.07981 | 29.58894 | 38016 ft | 466 kts | 337° |
| 2026-05-04 17:36 | 41.32144 | 29.46924 | 38010 ft | 465 kts | 345° |
| 2026-05-04 17:37 | 41.52811 | 29.39095 | 38018 ft | 465 kts | 345° |
| 2026-05-04 17:37 | 41.59062 | 29.36700 | 38018 ft | 468 kts | 345° |
| 2026-05-04 17:38 | 41.65308 | 29.34306 | 38022 ft | 465 kts | 345° |
| 2026-05-04 17:38 | 41.71530 | 29.31916 | 38021 ft | 465 kts | 345° |
| 2026-05-04 17:39 | 41.80866 | 29.28321 | 38021 ft | 465 kts | 345° |
| 2026-05-04 17:39 | 41.87046 | 29.25935 | 38028 ft | 465 kts | 345° |
| 2026-05-04 17:40 | 41.93271 | 29.23526 | 38032 ft | 465 kts | 345° |
| 2026-05-04 17:40 | 41.99501 | 29.21112 | 38028 ft | 465 kts | 345° |
| 2026-05-04 17:41 | 42.05732 | 29.18691 | 38031 ft | 465 kts | 345° |
| 2026-05-04 17:41 | 42.11948 | 29.16272 | 38033 ft | 466 kts | 345° |
| 2026-05-04 17:42 | 42.17959 | 29.12972 | 38035 ft | 469 kts | 333° |
| 2026-05-04 17:42 | 42.23420 | 29.08210 | 38030 ft | 471 kts | 327° |
| 2026-05-04 17:43 | 42.28719 | 29.03001 | 38032 ft | 472 kts | 325° |
| 2026-05-04 17:43 | 42.33961 | 28.97648 | 38037 ft | 472 kts | 324° |
| 2026-05-04 17:44 | 42.39197 | 28.92274 | 38034 ft | 473 kts | 324° |
| 2026-05-04 17:44 | 42.44443 | 28.86900 | 38037 ft | 473 kts | 324° |
| 2026-05-04 17:45 | 42.49695 | 28.81520 | 38037 ft | 473 kts | 324° |
| 2026-05-04 17:45 | 42.54944 | 28.76134 | 38039 ft | 473 kts | 324° |
| 2026-05-04 17:46 | 42.60160 | 28.70771 | 38039 ft | 473 kts | 324° |
| 2026-05-04 17:46 | 42.65408 | 28.65362 | 38040 ft | 473 kts | 324° |
| 2026-05-04 17:47 | 42.70661 | 28.59937 | 38043 ft | 473 kts | 324° |
| 2026-05-04 17:47 | 42.75893 | 28.54519 | 38045 ft | 473 kts | 324° |
| 2026-05-04 17:48 | 42.81141 | 28.49074 | 38044 ft | 473 kts | 324° |
| 2026-05-04 17:48 | 42.86377 | 28.43630 | 38031 ft | 473 kts | 324° |
| 2026-05-04 17:49 | 42.91573 | 28.38215 | 38047 ft | 472 kts | 324° |
| 2026-05-04 17:49 | 42.96790 | 28.32767 | 38048 ft | 473 kts | 324° |
| 2026-05-04 17:50 | 43.02024 | 28.27289 | 38053 ft | 473 kts | 324° |
| 2026-05-04 17:50 | 43.07249 | 28.21809 | 38066 ft | 472 kts | 324° |
| 2026-05-04 17:51 | 43.12460 | 28.16332 | 38051 ft | 471 kts | 324° |
| 2026-05-04 17:51 | 43.17649 | 28.10865 | 38048 ft | 471 kts | 324° |
| 2026-05-04 17:52 | 43.22846 | 28.05378 | 38057 ft | 471 kts | 324° |
| 2026-05-04 17:52 | 43.28032 | 27.99891 | 38050 ft | 470 kts | 323° |
| 2026-05-04 17:53 | 43.33177 | 27.94435 | 38052 ft | 470 kts | 323° |
| 2026-05-04 17:53 | 43.38361 | 27.88925 | 38053 ft | 470 kts | 323° |
| 2026-05-04 17:54 | 43.40934 | 27.86188 | 37408 ft | 470 kts | 322° |
| 2026-05-04 17:54 | 43.43538 | 27.83413 | 38170 ft | 473 kts | 323° |
| 2026-05-04 17:54 | 43.48714 | 27.77885 | 38058 ft | 470 kts | 323° |
| 2026-05-04 17:55 | 43.53881 | 27.72356 | 38059 ft | 470 kts | 323° |
| 2026-05-04 17:55 | 43.59040 | 27.66823 | 38061 ft | 470 kts | 323° |
| 2026-05-04 17:56 | 43.64199 | 27.61280 | 38056 ft | 469 kts | 323° |
| 2026-05-04 17:56 | 43.69323 | 27.55760 | 38059 ft | 468 kts | 323° |
| 2026-05-04 17:57 | 43.74452 | 27.50223 | 38055 ft | 468 kts | 323° |
| 2026-05-04 17:57 | 43.79606 | 27.44647 | 38059 ft | 472 kts | 323° |
| 2026-05-04 17:58 | 43.84800 | 27.39017 | 38050 ft | 479 kts | 322° |
| 2026-05-04 17:58 | 43.90053 | 27.33308 | 38051 ft | 479 kts | 322° |
| 2026-05-04 17:59 | 43.95308 | 27.27582 | 38051 ft | 479 kts | 322° |
| 2026-05-04 18:00 | 44.03144 | 27.19021 | 38045 ft | 479 kts | 322° |
| 2026-05-04 18:00 | 44.08375 | 27.13289 | 38051 ft | 479 kts | 322° |
| 2026-05-04 18:01 | 44.13616 | 27.07533 | 38048 ft | 480 kts | 322° |
| 2026-05-04 18:01 | 44.18855 | 27.01765 | 38044 ft | 480 kts | 322° |
| 2026-05-04 18:02 | 44.26715 | 26.93088 | 38044 ft | 481 kts | 322° |
| 2026-05-04 18:02 | 44.31957 | 26.87283 | 38044 ft | 481 kts | 322° |
| 2026-05-04 18:03 | 44.37199 | 26.81465 | 38044 ft | 481 kts | 322° |
| 2026-05-04 18:03 | 44.42441 | 26.75634 | 38044 ft | 481 kts | 322° |
| 2026-05-04 18:04 | 44.47639 | 26.69837 | 38044 ft | 481 kts | 322° |
| 2026-05-04 18:05 | 44.55485 | 26.61062 | 38044 ft | 481 kts | 322° |
| 2026-05-04 18:05 | 44.60719 | 26.55191 | 38035 ft | 481 kts | 321° |
| 2026-05-04 18:06 | 44.68539 | 26.46394 | 38047 ft | 480 kts | 321° |
| 2026-05-04 18:06 | 44.73747 | 26.40516 | 38044 ft | 480 kts | 321° |
| 2026-05-04 18:07 | 44.78953 | 26.34628 | 38044 ft | 480 kts | 321° |
| 2026-05-04 18:07 | 44.84127 | 26.28761 | 38044 ft | 480 kts | 321° |
| 2026-05-04 18:08 | 44.89339 | 26.22839 | 38047 ft | 479 kts | 321° |
| 2026-05-04 18:08 | 44.93647 | 26.17932 | 38048 ft | 480 kts | 321° |
| 2026-05-04 18:09 | 45.04045 | 26.06048 | 38049 ft | 481 kts | 321° |
| 2026-05-04 18:10 | 45.09213 | 26.00121 | 38056 ft | 481 kts | 321° |
| 2026-05-04 18:10 | 45.14415 | 25.94141 | 38057 ft | 481 kts | 321° |
| 2026-05-04 18:11 | 45.19628 | 25.88131 | 38086 ft | 481 kts | 321° |
| 2026-05-04 18:11 | 45.24763 | 25.82198 | 38074 ft | 479 kts | 321° |
| 2026-05-04 18:12 | 45.29943 | 25.76200 | 38090 ft | 477 kts | 321° |
| 2026-05-04 18:12 | 45.35080 | 25.70239 | 38075 ft | 479 kts | 321° |
| 2026-05-04 18:13 | 45.40226 | 25.64248 | 38097 ft | 476 kts | 321° |
| 2026-05-04 18:14 | 45.47746 | 25.55470 | 38092 ft | 479 kts | 321° |
| 2026-05-04 18:14 | 45.52897 | 25.49439 | 38091 ft | 481 kts | 321° |
| 2026-05-04 18:15 | 45.63264 | 25.37256 | 38079 ft | 482 kts | 321° |
| 2026-05-04 18:16 | 45.68427 | 25.31166 | 38072 ft | 482 kts | 321° |
| 2026-05-04 18:16 | 45.73616 | 25.25031 | 38069 ft | 482 kts | 321° |
| 2026-05-04 18:17 | 45.81375 | 25.15828 | 38059 ft | 482 kts | 321° |
| 2026-05-04 18:18 | 45.89098 | 25.06632 | 38062 ft | 482 kts | 321° |
| 2026-05-04 18:18 | 45.94257 | 25.00472 | 38060 ft | 482 kts | 321° |
| 2026-05-04 18:19 | 46.01973 | 24.91228 | 38050 ft | 482 kts | 321° |
| 2026-05-04 18:19 | 46.07139 | 24.85020 | 38059 ft | 485 kts | 321° |
| 2026-05-04 18:20 | 46.12328 | 24.78768 | 38057 ft | 486 kts | 321° |
| 2026-05-04 18:20 | 46.17504 | 24.72516 | 38057 ft | 486 kts | 321° |
| 2026-05-04 18:21 | 46.22688 | 24.66239 | 38049 ft | 485 kts | 321° |
| 2026-05-04 18:21 | 46.27849 | 24.59972 | 38051 ft | 484 kts | 321° |
| 2026-05-04 18:22 | 46.33004 | 24.53699 | 38054 ft | 484 kts | 321° |
| 2026-05-04 18:22 | 46.38157 | 24.47411 | 38052 ft | 484 kts | 321° |
| 2026-05-04 18:23 | 46.43312 | 24.41105 | 38048 ft | 484 kts | 321° |
| 2026-05-04 18:23 | 46.48446 | 24.34807 | 38053 ft | 483 kts | 321° |
| 2026-05-04 18:24 | 46.53574 | 24.28501 | 38049 ft | 483 kts | 321° |
| 2026-05-04 18:24 | 46.58671 | 24.22217 | 38056 ft | 483 kts | 321° |
| 2026-05-04 18:25 | 46.63805 | 24.15873 | 38046 ft | 483 kts | 321° |
| 2026-05-04 18:25 | 46.68926 | 24.09527 | 38056 ft | 483 kts | 321° |
| 2026-05-04 18:26 | 46.74048 | 24.03165 | 38053 ft | 484 kts | 320° |
| 2026-05-04 18:26 | 46.79179 | 23.96774 | 38052 ft | 484 kts | 320° |
| 2026-05-04 18:27 | 46.84274 | 23.90411 | 38040 ft | 484 kts | 320° |
| 2026-05-04 18:27 | 46.89407 | 23.83982 | 38052 ft | 484 kts | 320° |
| 2026-05-04 18:28 | 46.94524 | 23.77558 | 38053 ft | 484 kts | 320° |
| 2026-05-04 18:28 | 46.99602 | 23.71167 | 38058 ft | 484 kts | 320° |
| 2026-05-04 18:29 | 47.04709 | 23.64724 | 38061 ft | 484 kts | 320° |
| 2026-05-04 18:29 | 47.09819 | 23.58258 | 38070 ft | 485 kts | 320° |
| 2026-05-04 18:30 | 47.17486 | 23.48526 | 38070 ft | 485 kts | 320° |
| 2026-05-04 18:31 | 47.22590 | 23.42024 | 38073 ft | 485 kts | 320° |
| 2026-05-04 18:31 | 47.27655 | 23.35557 | 38067 ft | 485 kts | 320° |
| 2026-05-04 18:32 | 47.32756 | 23.29027 | 38069 ft | 485 kts | 320° |
| 2026-05-04 18:32 | 47.37856 | 23.22480 | 38070 ft | 486 kts | 320° |
| 2026-05-04 18:33 | 47.42953 | 23.15919 | 38065 ft | 486 kts | 320° |
| 2026-05-04 18:33 | 47.48051 | 23.09339 | 38054 ft | 486 kts | 320° |
| 2026-05-04 18:34 | 47.53131 | 23.02764 | 38054 ft | 485 kts | 320° |
| 2026-05-04 18:34 | 47.58173 | 22.96222 | 38050 ft | 485 kts | 320° |
| 2026-05-04 18:35 | 47.63239 | 22.89631 | 38048 ft | 485 kts | 320° |
| 2026-05-04 18:35 | 47.68339 | 22.82979 | 38036 ft | 485 kts | 319° |
| 2026-05-04 18:36 | 47.73364 | 22.76405 | 38048 ft | 484 kts | 319° |
| 2026-05-04 18:36 | 47.78419 | 22.69775 | 38050 ft | 484 kts | 319° |
| 2026-05-04 18:37 | 47.83458 | 22.63148 | 38055 ft | 484 kts | 319° |
| 2026-05-04 18:37 | 47.88502 | 22.56497 | 38056 ft | 484 kts | 319° |
| 2026-05-04 18:38 | 47.93528 | 22.49851 | 38059 ft | 483 kts | 319° |
| 2026-05-04 18:38 | 47.98554 | 22.43188 | 38056 ft | 482 kts | 319° |
| 2026-05-04 18:39 | 48.03535 | 22.36567 | 38056 ft | 482 kts | 319° |
| 2026-05-04 18:39 | 48.08547 | 22.29886 | 38053 ft | 482 kts | 319° |
| 2026-05-04 18:40 | 48.13504 | 22.23260 | 38053 ft | 482 kts | 319° |
| 2026-05-04 18:40 | 48.18497 | 22.16568 | 38053 ft | 481 kts | 319° |
| 2026-05-04 18:41 | 48.23485 | 22.09864 | 38048 ft | 481 kts | 319° |
| 2026-05-04 18:41 | 48.28471 | 22.03146 | 38049 ft | 481 kts | 319° |
| 2026-05-04 18:42 | 48.33479 | 21.96476 | 38040 ft | 481 kts | 322° |
| 2026-05-04 18:42 | 48.39171 | 21.91266 | 38048 ft | 480 kts | 335° |
| 2026-05-04 18:43 | 48.45355 | 21.87578 | 38050 ft | 481 kts | 340° |
| 2026-05-04 18:43 | 48.51687 | 21.84299 | 38050 ft | 481 kts | 341° |
| 2026-05-04 18:44 | 48.58016 | 21.81020 | 38054 ft | 481 kts | 340° |
| 2026-05-04 18:44 | 48.64341 | 21.77657 | 38048 ft | 481 kts | 340° |
| 2026-05-04 18:45 | 48.70655 | 21.74254 | 38048 ft | 481 kts | 340° |
| 2026-05-04 18:45 | 48.76946 | 21.70793 | 38045 ft | 481 kts | 338° |
| 2026-05-04 18:46 | 48.83044 | 21.66772 | 38046 ft | 481 kts | 335° |
| 2026-05-04 18:46 | 48.89146 | 21.62537 | 38045 ft | 482 kts | 335° |
| 2026-05-04 18:47 | 48.95270 | 21.58367 | 38044 ft | 482 kts | 336° |
| 2026-05-04 18:47 | 49.01411 | 21.54251 | 38042 ft | 483 kts | 335° |
| 2026-05-04 18:48 | 49.07572 | 21.50130 | 38042 ft | 483 kts | 335° |
| 2026-05-04 18:48 | 49.13733 | 21.45997 | 38036 ft | 483 kts | 335° |
| 2026-05-04 18:49 | 49.19885 | 21.41857 | 38037 ft | 483 kts | 335° |
| 2026-05-04 18:49 | 49.26045 | 21.37696 | 38034 ft | 483 kts | 335° |
| 2026-05-04 18:50 | 49.32157 | 21.33559 | 38036 ft | 483 kts | 335° |
| 2026-05-04 18:50 | 49.38311 | 21.29381 | 38025 ft | 483 kts | 335° |
| 2026-05-04 18:51 | 49.44475 | 21.25183 | 38027 ft | 484 kts | 335° |
| 2026-05-04 18:51 | 49.50623 | 21.20985 | 38014 ft | 484 kts | 335° |
| 2026-05-04 18:52 | 49.56709 | 21.16550 | 38008 ft | 483 kts | 332° |
| 2026-05-04 18:52 | 49.61677 | 21.12594 | 38001 ft | 483 kts | 331° |
| 2026-05-04 18:53 | 49.67636 | 21.07738 | 37996 ft | 484 kts | 331° |
| 2026-05-04 18:53 | 49.73587 | 21.02867 | 37996 ft | 484 kts | 331° |
| 2026-05-04 18:54 | 49.79545 | 20.97993 | 37988 ft | 484 kts | 331° |
| 2026-05-04 18:54 | 49.85469 | 20.93141 | 37982 ft | 484 kts | 331° |
| 2026-05-04 18:55 | 49.91426 | 20.88250 | 37980 ft | 484 kts | 331° |
| 2026-05-04 18:55 | 50.00381 | 20.80871 | 37977 ft | 485 kts | 331° |
| 2026-05-04 18:56 | 50.06350 | 20.75935 | 37971 ft | 485 kts | 331° |
| 2026-05-04 18:56 | 50.12314 | 20.70988 | 37971 ft | 485 kts | 330° |
| 2026-05-04 18:57 | 50.18254 | 20.66048 | 37966 ft | 485 kts | 330° |
| 2026-05-04 18:57 | 50.24200 | 20.61089 | 37967 ft | 485 kts | 330° |
| 2026-05-04 18:58 | 50.30153 | 20.56109 | 37966 ft | 485 kts | 330° |
| 2026-05-04 18:58 | 50.36075 | 20.51141 | 37967 ft | 485 kts | 330° |
| 2026-05-04 18:59 | 50.42017 | 20.46142 | 37966 ft | 484 kts | 330° |
| 2026-05-04 18:59 | 50.47885 | 20.41191 | 37972 ft | 484 kts | 330° |
| 2026-05-04 19:00 | 50.52040 | 20.37677 | 37966 ft | 484 kts | 330° |
| 2026-05-04 19:00 | 50.57975 | 20.32646 | 37962 ft | 484 kts | 330° |
| 2026-05-04 19:01 | 50.63887 | 20.27618 | 37958 ft | 484 kts | 330° |
| 2026-05-04 19:01 | 50.69815 | 20.22563 | 37956 ft | 484 kts | 330° |
| 2026-05-04 19:02 | 50.75734 | 20.17501 | 37958 ft | 484 kts | 330° |
| 2026-05-04 19:02 | 50.81609 | 20.12464 | 37955 ft | 484 kts | 330° |
| 2026-05-04 19:03 | 50.87519 | 20.07379 | 37955 ft | 483 kts | 329° |
| 2026-05-04 19:03 | 50.92700 | 20.02910 | 37956 ft | 483 kts | 329° |
| 2026-05-04 19:04 | 50.98598 | 19.97809 | 37944 ft | 483 kts | 329° |
| 2026-05-04 19:04 | 51.04499 | 19.92691 | 37945 ft | 482 kts | 329° |
| 2026-05-04 19:05 | 51.10359 | 19.87594 | 37945 ft | 482 kts | 329° |
| 2026-05-04 19:05 | 51.16250 | 19.82454 | 37950 ft | 482 kts | 329° |
| 2026-05-04 19:06 | 51.22121 | 19.77318 | 37939 ft | 481 kts | 329° |
| 2026-05-04 19:06 | 51.27919 | 19.72033 | 37940 ft | 479 kts | 324° |
| 2026-05-04 19:07 | 51.33377 | 19.65955 | 37931 ft | 478 kts | 322° |
| 2026-05-04 19:07 | 51.38706 | 19.59700 | 37929 ft | 478 kts | 321° |
| 2026-05-04 19:08 | 51.44045 | 19.53362 | 37942 ft | 478 kts | 321° |
| 2026-05-04 19:08 | 51.49392 | 19.47019 | 37929 ft | 478 kts | 321° |
| 2026-05-04 19:09 | 51.54743 | 19.40669 | 37933 ft | 478 kts | 321° |
| 2026-05-04 19:09 | 51.60089 | 19.34313 | 37931 ft | 478 kts | 321° |
| 2026-05-04 19:10 | 51.65431 | 19.27943 | 37933 ft | 478 kts | 321° |
| 2026-05-04 19:10 | 51.70778 | 19.21548 | 37938 ft | 478 kts | 321° |
| 2026-05-04 19:11 | 51.76124 | 19.15132 | 37936 ft | 478 kts | 321° |
| 2026-05-04 19:11 | 51.81458 | 19.08711 | 37931 ft | 478 kts | 321° |
| 2026-05-04 19:12 | 51.89458 | 18.99046 | 37927 ft | 478 kts | 320° |
| 2026-05-04 19:13 | 51.94757 | 18.92621 | 37927 ft | 478 kts | 320° |
| 2026-05-04 19:13 | 52.00079 | 18.86147 | 37928 ft | 478 kts | 320° |
| 2026-05-04 19:14 | 52.05406 | 18.79647 | 37926 ft | 479 kts | 320° |
| 2026-05-04 19:14 | 52.10726 | 18.73136 | 37931 ft | 479 kts | 320° |
| 2026-05-04 19:15 | 52.16042 | 18.66610 | 37928 ft | 479 kts | 320° |
| 2026-05-04 19:15 | 52.21362 | 18.60059 | 37930 ft | 479 kts | 320° |
| 2026-05-04 19:16 | 52.26676 | 18.53496 | 37931 ft | 478 kts | 320° |
| 2026-05-04 19:16 | 52.31936 | 18.46980 | 37936 ft | 477 kts | 320° |
| 2026-05-04 19:17 | 52.37220 | 18.40413 | 37935 ft | 476 kts | 320° |
| 2026-05-04 19:17 | 52.42489 | 18.33844 | 37932 ft | 476 kts | 320° |
| 2026-05-04 19:18 | 52.47769 | 18.27241 | 37934 ft | 476 kts | 320° |
| 2026-05-04 19:18 | 52.53031 | 18.20640 | 37938 ft | 476 kts | 320° |
| 2026-05-04 19:19 | 52.58288 | 18.14027 | 37938 ft | 476 kts | 320° |
| 2026-05-04 19:19 | 52.63544 | 18.07394 | 37946 ft | 477 kts | 319° |
| 2026-05-04 19:20 | 52.68810 | 18.00726 | 37940 ft | 478 kts | 319° |
| 2026-05-04 19:20 | 52.74012 | 17.94118 | 37946 ft | 478 kts | 319° |
| 2026-05-04 19:21 | 52.79277 | 17.87410 | 37934 ft | 478 kts | 319° |
| 2026-05-04 19:21 | 52.84533 | 17.80694 | 37943 ft | 477 kts | 319° |
| 2026-05-04 19:22 | 52.89787 | 17.73959 | 37948 ft | 477 kts | 319° |
| 2026-05-04 19:22 | 52.95039 | 17.67207 | 37946 ft | 477 kts | 319° |
| 2026-05-04 19:23 | 53.00280 | 17.60445 | 37946 ft | 477 kts | 319° |
| 2026-05-04 19:23 | 53.05518 | 17.53666 | 37969 ft | 477 kts | 319° |
| 2026-05-04 19:24 | 53.10746 | 17.46878 | 37948 ft | 477 kts | 318° |
| 2026-05-04 19:24 | 53.15978 | 17.40063 | 37948 ft | 477 kts | 318° |
| 2026-05-04 19:25 | 53.21169 | 17.33279 | 37958 ft | 477 kts | 318° |
| 2026-05-04 19:25 | 53.26387 | 17.26440 | 37958 ft | 477 kts | 318° |
| 2026-05-04 19:26 | 53.31265 | 17.20025 | 37960 ft | 478 kts | 318° |
| 2026-05-04 19:26 | 53.36496 | 17.13126 | 37964 ft | 478 kts | 318° |
| 2026-05-04 19:27 | 53.41720 | 17.06214 | 37967 ft | 479 kts | 318° |
| 2026-05-04 19:27 | 53.46947 | 16.99276 | 37967 ft | 479 kts | 317° |
| 2026-05-04 19:28 | 53.52163 | 16.92330 | 37966 ft | 479 kts | 317° |
| 2026-05-04 19:28 | 53.57387 | 16.85350 | 37977 ft | 479 kts | 317° |
| 2026-05-04 19:29 | 53.62609 | 16.78350 | 37979 ft | 480 kts | 317° |
| 2026-05-04 19:29 | 53.67846 | 16.71309 | 37977 ft | 481 kts | 317° |
| 2026-05-04 19:30 | 53.73044 | 16.64299 | 37979 ft | 481 kts | 317° |
| 2026-05-04 19:30 | 53.78256 | 16.57243 | 37979 ft | 481 kts | 317° |
| 2026-05-04 19:31 | 53.83487 | 16.50139 | 37981 ft | 481 kts | 317° |
| 2026-05-04 19:31 | 53.88696 | 16.43042 | 37997 ft | 481 kts | 317° |
| 2026-05-04 19:32 | 53.93917 | 16.35903 | 37982 ft | 482 kts | 317° |
| 2026-05-04 19:32 | 53.99143 | 16.28736 | 37976 ft | 482 kts | 317° |
| 2026-05-04 19:33 | 54.04331 | 16.21598 | 37979 ft | 483 kts | 317° |
| 2026-05-04 19:33 | 54.09549 | 16.14395 | 37978 ft | 483 kts | 317° |
| 2026-05-04 19:34 | 54.14758 | 16.07180 | 37676 ft | 478 kts | 317° |
| 2026-05-04 19:34 | 54.17335 | 16.03605 | 36985 ft | 477 kts | 316° |
| 2026-05-04 19:34 | 54.19898 | 16.00042 | 36349 ft | 474 kts | 316° |
| 2026-05-04 19:34 | 54.22459 | 15.96475 | 36040 ft | 474 kts | 315° |
| 2026-05-04 19:35 | 54.25014 | 15.92906 | 35978 ft | 474 kts | 315° |
| 2026-05-04 19:35 | 54.30089 | 15.85802 | 35976 ft | 473 kts | 315° |
| 2026-05-04 19:36 | 54.35185 | 15.78646 | 35974 ft | 473 kts | 315° |
| 2026-05-04 19:36 | 54.39368 | 15.72756 | 35970 ft | 473 kts | 315° |
| 2026-05-04 19:37 | 54.42773 | 15.67950 | 35971 ft | 473 kts | 315° |
| 2026-05-04 19:37 | 54.47824 | 15.60801 | 35966 ft | 473 kts | 315° |
| 2026-05-04 19:38 | 54.52904 | 15.53586 | 35988 ft | 473 kts | 315° |
| 2026-05-04 19:38 | 54.57992 | 15.46339 | 35968 ft | 474 kts | 315° |
| 2026-05-04 19:39 | 54.63074 | 15.39072 | 35962 ft | 474 kts | 315° |
| 2026-05-04 19:39 | 54.68120 | 15.31834 | 35962 ft | 474 kts | 315° |
| 2026-05-04 19:40 | 54.73193 | 15.24533 | 35964 ft | 474 kts | 315° |
| 2026-05-04 19:40 | 54.75730 | 15.20873 | 35860 ft | 474 kts | 315° |
| 2026-05-04 19:40 | 54.78245 | 15.17243 | 35583 ft | 468 kts | 315° |
| 2026-05-04 19:40 | 54.79896 | 15.14858 | 35234 ft | 463 kts | 315° |
| 2026-05-04 19:41 | 54.82365 | 15.11286 | 34555 ft | 461 kts | 314° |
| 2026-05-04 19:41 | 54.84824 | 15.07718 | 33795 ft | 460 kts | 314° |
| 2026-05-04 19:41 | 54.87276 | 15.04148 | 32917 ft | 459 kts | 314° |
| 2026-05-04 19:41 | 54.89712 | 15.00599 | 32106 ft | 456 kts | 313° |
| 2026-05-04 19:42 | 54.92147 | 14.97047 | 31291 ft | 454 kts | 313° |
| 2026-05-04 19:42 | 54.94557 | 14.93526 | 30461 ft | 452 kts | 313° |
| 2026-05-04 19:42 | 54.96907 | 14.90032 | 29727 ft | 445 kts | 310° |
| 2026-05-04 19:42 | 54.99073 | 14.86255 | 28675 ft | 439 kts | 305° |
| 2026-05-04 19:43 | 55.00933 | 14.82057 | 27489 ft | 437 kts | 298° |
| 2026-05-04 19:43 | 55.02469 | 14.77503 | 26492 ft | 434 kts | 294° |
| 2026-05-04 19:43 | 55.03841 | 14.72995 | 25632 ft | 433 kts | 293° |
| 2026-05-04 19:43 | 55.05231 | 14.68346 | 24857 ft | 430 kts | 293° |
| 2026-05-04 19:44 | 55.06604 | 14.63742 | 24166 ft | 426 kts | 293° |
| 2026-05-04 19:44 | 55.07963 | 14.59173 | 23474 ft | 422 kts | 294° |
| 2026-05-04 19:44 | 55.09305 | 14.54657 | 22788 ft | 416 kts | 294° |
| 2026-05-04 19:44 | 55.10604 | 14.50275 | 22193 ft | 408 kts | 294° |
| 2026-05-04 19:45 | 55.11912 | 14.45856 | 21648 ft | 400 kts | 294° |
| 2026-05-04 19:45 | 55.13163 | 14.41622 | 21089 ft | 394 kts | 294° |
| 2026-05-04 19:45 | 55.14411 | 14.37385 | 20530 ft | 390 kts | 294° |
| 2026-05-04 19:45 | 55.15645 | 14.33190 | 19946 ft | 385 kts | 294° |
| 2026-05-04 19:46 | 55.16864 | 14.29039 | 19365 ft | 382 kts | 294° |
| 2026-05-04 19:46 | 55.18072 | 14.24916 | 18797 ft | 379 kts | 294° |
| 2026-05-04 19:46 | 55.19267 | 14.20832 | 18207 ft | 376 kts | 294° |
| 2026-05-04 19:46 | 55.20454 | 14.16767 | 17574 ft | 373 kts | 294° |
| 2026-05-04 19:47 | 55.21629 | 14.12741 | 16992 ft | 369 kts | 294° |
| 2026-05-04 19:47 | 55.22792 | 14.08748 | 16410 ft | 365 kts | 294° |
| 2026-05-04 19:47 | 55.23938 | 14.04805 | 15840 ft | 362 kts | 294° |
| 2026-05-04 19:47 | 55.25077 | 14.00879 | 15271 ft | 360 kts | 294° |
| 2026-05-04 19:48 | 55.26205 | 13.96985 | 14682 ft | 357 kts | 294° |
| 2026-05-04 19:48 | 55.27309 | 13.93168 | 14123 ft | 355 kts | 294° |
| 2026-05-04 19:48 | 55.28422 | 13.89313 | 13515 ft | 353 kts | 294° |
| 2026-05-04 19:48 | 55.29524 | 13.85489 | 12910 ft | 349 kts | 294° |
| 2026-05-04 19:49 | 55.30616 | 13.81696 | 12330 ft | 346 kts | 294° |
| 2026-05-04 19:49 | 55.31694 | 13.77944 | 11756 ft | 342 kts | 294° |
| 2026-05-04 19:49 | 55.32761 | 13.74225 | 11189 ft | 339 kts | 294° |
| 2026-05-04 19:49 | 55.33817 | 13.70537 | 10794 ft | 330 kts | 294° |
| 2026-05-04 19:50 | 55.34825 | 13.67023 | 10663 ft | 314 kts | 294° |
| 2026-05-04 19:50 | 55.35779 | 13.63686 | 10538 ft | 298 kts | 294° |
| 2026-05-04 19:50 | 55.36676 | 13.60546 | 10404 ft | 283 kts | 294° |
| 2026-05-04 19:50 | 55.37539 | 13.57516 | 10277 ft | 270 kts | 294° |
| 2026-05-04 19:51 | 55.38360 | 13.54627 | 10145 ft | 260 kts | 294° |
| 2026-05-04 19:51 | 55.39154 | 13.51830 | 10018 ft | 251 kts | 294° |
| 2026-05-04 19:51 | 55.39927 | 13.49100 | 9913 ft | 254 kts | 294° |
| 2026-05-04 19:51 | 55.40736 | 13.46230 | 9871 ft | 266 kts | 294° |
| 2026-05-04 19:52 | 55.41564 | 13.43298 | 9749 ft | 268 kts | 294° |
| 2026-05-04 19:52 | 55.42392 | 13.40371 | 9323 ft | 267 kts | 294° |
| 2026-05-04 19:52 | 55.43217 | 13.37452 | 8932 ft | 265 kts | 294° |
| 2026-05-04 19:52 | 55.44036 | 13.34549 | 8632 ft | 264 kts | 294° |
| 2026-05-04 19:53 | 55.44849 | 13.31663 | 8326 ft | 263 kts | 294° |
| 2026-05-04 19:53 | 55.45601 | 13.28749 | 8062 ft | 261 kts | 287° |
| 2026-05-04 19:53 | 55.45878 | 13.25618 | 7881 ft | 258 kts | 269° |
| 2026-05-04 19:53 | 55.45754 | 13.22463 | 7763 ft | 258 kts | 264° |
| 2026-05-04 19:54 | 55.45553 | 13.19329 | 7625 ft | 254 kts | 264° |
| 2026-05-04 19:54 | 55.45354 | 13.16328 | 7497 ft | 242 kts | 264° |
| 2026-05-04 19:54 | 55.45167 | 13.13435 | 7360 ft | 235 kts | 264° |
| 2026-05-04 19:54 | 55.44985 | 13.10581 | 7246 ft | 234 kts | 264° |
| 2026-05-04 19:55 | 55.44806 | 13.07726 | 7112 ft | 234 kts | 264° |
| 2026-05-04 19:55 | 55.44628 | 13.04878 | 6998 ft | 234 kts | 264° |
| 2026-05-04 19:55 | 55.44453 | 13.02070 | 6859 ft | 233 kts | 264° |
| 2026-05-04 19:55 | 55.44275 | 12.99231 | 6743 ft | 233 kts | 264° |
| 2026-05-04 19:56 | 55.44098 | 12.96401 | 6614 ft | 233 kts | 264° |
| 2026-05-04 19:56 | 55.44037 | 12.93628 | 6497 ft | 232 kts | 274° |
| 2026-05-04 19:56 | 55.44422 | 12.90869 | 6383 ft | 233 kts | 288° |
| 2026-05-04 19:56 | 55.45026 | 12.88204 | 6229 ft | 233 kts | 291° |
| 2026-05-04 19:57 | 55.45660 | 12.85571 | 6117 ft | 234 kts | 291° |
| 2026-05-04 19:57 | 55.46401 | 12.83059 | 6005 ft | 236 kts | 302° |
| 2026-05-04 19:57 | 55.47616 | 12.81074 | 5850 ft | 242 kts | 326° |
| 2026-05-04 19:57 | 55.49236 | 12.80220 | 5740 ft | 249 kts | 353° |
| 2026-05-04 19:58 | 55.50963 | 12.80658 | 5604 ft | 254 kts | 12° |
| 2026-05-04 19:58 | 55.52648 | 12.81620 | 5464 ft | 255 kts | 15° |
| 2026-05-04 19:58 | 55.54323 | 12.82646 | 5324 ft | 254 kts | 15° |
| 2026-05-04 19:58 | 55.55992 | 12.83654 | 5206 ft | 253 kts | 15° |
| 2026-05-04 19:59 | 55.57637 | 12.84767 | 5055 ft | 253 kts | 19° |
| 2026-05-04 19:59 | 55.59234 | 12.85966 | 4910 ft | 244 kts | 20° |
| 2026-05-04 19:59 | 55.60790 | 12.87137 | 4781 ft | 241 kts | 20° |
| 2026-05-04 19:59 | 55.62258 | 12.88592 | 4688 ft | 244 kts | 32° |
| 2026-05-04 20:00 | 55.63591 | 12.90362 | 4575 ft | 243 kts | 34° |
| 2026-05-04 20:00 | 55.64920 | 12.92218 | 4444 ft | 242 kts | 35° |
| 2026-05-04 20:00 | 55.66240 | 12.94068 | 4094 ft | 240 kts | 35° |
| 2026-05-04 20:00 | 55.67549 | 12.95901 | 3989 ft | 240 kts | 35° |
| 2026-05-04 20:01 | 55.68863 | 12.97736 | 3985 ft | 240 kts | 35° |
| 2026-05-04 20:01 | 55.70170 | 12.99560 | 3977 ft | 240 kts | 35° |
| 2026-05-04 20:01 | 55.71476 | 13.01395 | 3975 ft | 239 kts | 35° |
| 2026-05-04 20:01 | 55.72785 | 13.03234 | 3976 ft | 239 kts | 35° |
| 2026-05-04 20:02 | 55.74099 | 13.04989 | 3971 ft | 238 kts | 27° |
| 2026-05-04 20:02 | 55.75642 | 13.05819 | 3978 ft | 231 kts | 2° |
| 2026-05-04 20:02 | 55.77242 | 13.05895 | 3975 ft | 229 kts | 355° |
| 2026-05-04 20:02 | 55.78805 | 13.05546 | 3968 ft | 221 kts | 336° |
| 2026-05-04 20:03 | 55.79956 | 13.04025 | 3962 ft | 200 kts | 303° |
| 2026-05-04 20:03 | 55.80370 | 13.01739 | 3974 ft | 197 kts | 270° |
| 2026-05-04 20:03 | 55.80148 | 12.99337 | 3981 ft | 198 kts | 257° |
| 2026-05-04 20:03 | 55.79775 | 12.96978 | 3980 ft | 198 kts | 255° |
| 2026-05-04 20:04 | 55.79385 | 12.94631 | 3979 ft | 198 kts | 255° |
| 2026-05-04 20:04 | 55.78778 | 12.92423 | 3979 ft | 201 kts | 237° |
| 2026-05-04 20:04 | 55.77858 | 12.90590 | 3983 ft | 203 kts | 227° |
| 2026-05-04 20:04 | 55.76797 | 12.88928 | 3849 ft | 203 kts | 224° |
| 2026-05-04 20:05 | 55.75725 | 12.87284 | 3577 ft | 203 kts | 224° |
| 2026-05-04 20:05 | 55.74671 | 12.85625 | 3293 ft | 202 kts | 224° |
| 2026-05-04 20:05 | 55.73618 | 12.83981 | 2987 ft | 200 kts | 224° |
| 2026-05-04 20:05 | 55.72578 | 12.82363 | 2695 ft | 196 kts | 225° |
| 2026-05-04 20:06 | 55.71579 | 12.80808 | 2427 ft | 184 kts | 225° |
| 2026-05-04 20:06 | 55.70655 | 12.79370 | 2186 ft | 170 kts | 226° |
| 2026-05-04 20:06 | 55.69792 | 12.78025 | 1961 ft | 161 kts | 226° |
| 2026-05-04 20:06 | 55.68968 | 12.76740 | 1766 ft | 159 kts | 226° |
| 2026-05-04 20:07 | 55.68135 | 12.75444 | 1523 ft | 159 kts | 226° |
| 2026-05-04 20:07 | 55.67306 | 12.74153 | 1318 ft | 155 kts | 225° |
| 2026-05-04 20:07 | 55.66519 | 12.72933 | 1108 ft | 145 kts | 225° |
| 2026-05-04 20:07 | 55.65791 | 12.71801 | 906 ft | 135 kts | 224° |
| 2026-05-04 20:08 | 55.65105 | 12.70734 | 733 ft | 129 kts | 224° |
| 2026-05-04 20:08 | 55.64424 | 12.69677 | 552 ft | 130 kts | 224° |
| 2026-05-04 20:08 | 55.63745 | 12.68622 | 379 ft | 130 kts | 223° |
| 2026-05-04 20:08 | 55.63058 | 12.67557 | 208 ft | 131 kts | 223° |
| 2026-05-04 20:09 | 55.62377 | 12.66497 | 38 ft | 131 kts | 224° |
| 2026-05-04 20:09 | 55.61777 | 12.65565 | 30 ft | 88 kts | 220° |
| 2026-05-04 20:09 | 55.61450 | 12.65062 | 30 ft | 47 kts | 221° |
| 2026-05-04 20:09 | 55.61328 | 12.64855 | 31 ft | 21 kts | 231° |
| 2026-05-04 20:10 | 55.61252 | 12.64602 | 30 ft | 26 kts | 247° |
| 2026-05-04 20:10 | 55.61198 | 12.64310 | 30 ft | 15 kts | 252° |
| 2026-05-04 20:10 | 55.61189 | 12.64184 | 30 ft | 11 kts | 284° |
| 2026-05-04 20:10 | 55.61233 | 12.64108 | 30 ft | 8 kts | 346° |
| 2026-05-04 20:11 | 55.61309 | 12.64136 | 30 ft | 15 kts | 27° |
| 2026-05-04 20:11 | 55.61410 | 12.64256 | 30 ft | 20 kts | 33° |
| 2026-05-04 20:11 | 55.61538 | 12.64403 | 30 ft | 23 kts | 33° |
| 2026-05-04 20:11 | 55.61679 | 12.64566 | 30 ft | 24 kts | 33° |
| 2026-05-04 20:12 | 55.61823 | 12.64732 | 30 ft | 18 kts | 33° |
| 2026-05-04 20:12 | 55.61898 | 12.64820 | 30 ft | 14 kts | 33° |
| 2026-05-04 20:12 | 55.61993 | 12.64928 | 30 ft | 18 kts | 32° |
| 2026-05-04 20:12 | 55.62069 | 12.65016 | 30 ft | 10 kts | 33° |
| 2026-05-04 20:13 | 55.62114 | 12.65069 | 30 ft | 0 kts | 33° |
| 2026-05-04 20:13 | 55.62115 | 12.65070 | 30 ft | 1 kts | 33° |
| 2026-05-04 20:14 | 55.62141 | 12.65101 | 30 ft | 8 kts | 33° |
| 2026-05-04 20:14 | 55.62197 | 12.65166 | 30 ft | 9 kts | 33° |
| 2026-05-04 20:14 | 55.62261 | 12.65194 | 30 ft | 8 kts | 2° |
| 2026-05-04 20:14 | 55.62320 | 12.65200 | 30 ft | 6 kts | 4° |
| 2026-05-04 20:15 | 55.62378 | 12.65204 | 30 ft | 11 kts | 1° |
| 2026-05-04 20:15 | 55.62414 | 12.65204 | 30 ft | 1 kts | 0° |
| 2026-05-04 20:15 | 55.62426 | 12.65204 | 30 ft | 4 kts | 358° |
| 2026-05-04 20:15 | 55.62432 | 12.65189 | 30 ft | 1 kts | 302° |
| 2026-05-04 20:16 | 55.62432 | 12.65170 | 30 ft | 3 kts | 271° |
| 2026-05-04 20:16 | 55.62432 | 12.65119 | 30 ft | 5 kts | 270° |
| 2026-05-04 20:16 | 55.62432 | 12.65098 | 30 ft | 0 kts | 269° |
| 2026-05-04 20:16 | 55.62432 | 12.65084 | 30 ft | 2 kts | 269° |
| 2026-05-04 20:17 | 55.62432 | 12.65068 | 30 ft | 0 kts | 269° |
| 2026-05-04 20:17 | 55.62432 | 12.65066 | 30 ft | 1 kts | 269° |
| 2026-05-04 20:17 | 55.62432 | 12.65057 | 30 ft | 0 kts | 269° |